createdAt,value
2023-03-10T00:01:40.248Z,48.45
2023-03-10T00:04:08.167Z,49.05
2023-03-10T00:06:36.439Z,50.17
2023-03-10T00:09:04.317Z,45.03
2023-03-10T00:11:32.294Z,43.95
2023-03-10T00:14:00.474Z,44.60
2023-03-10T00:16:30.270Z,46.60
2023-03-10T00:18:58.213Z,42.15
2023-03-10T00:21:28.347Z,40.10
2023-03-10T00:26:24.700Z,37.75
2023-03-10T00:28:52.564Z,42.75
2023-03-10T00:31:23.511Z,45.22
2023-03-10T00:33:52.376Z,37.65
2023-03-10T00:36:23.973Z,37.20
2023-03-10T00:38:52.483Z,35.80
2023-03-10T00:41:21.750Z,34.28
2023-03-10T00:43:49.559Z,35.25
2023-03-10T00:46:17.771Z,32.75
2023-03-10T00:48:45.599Z,29.00
2023-03-10T00:51:13.565Z,24.25
2023-03-10T00:53:41.958Z,23.17
2023-03-10T00:56:16.446Z,22.58
2023-03-10T00:58:44.436Z,18.63
2023-03-10T01:01:22.857Z,17.50
2023-03-10T01:03:54.397Z,8.73
2023-03-10T01:06:22.311Z,8.60
2023-03-10T01:08:50.240Z,14.68
2023-03-10T01:11:21.764Z,14.05
2023-03-10T01:13:49.642Z,15.23
2023-03-10T01:16:17.568Z,16.67
2023-03-10T01:18:45.208Z,11.02
2023-03-10T01:21:21.090Z,10.00
2023-03-10T01:23:49.042Z,11.70
2023-03-10T01:26:18.552Z,12.48
2023-03-10T01:28:47.088Z,8.40
2023-03-10T01:31:15.288Z,10.85
2023-03-10T01:33:43.841Z,14.05
2023-03-10T01:36:14.083Z,12.52
2023-03-10T01:41:09.847Z,10.25
2023-03-10T01:43:39.851Z,10.40
2023-03-10T01:46:07.618Z,13.25
2023-03-10T01:48:37.126Z,11.85
2023-03-10T01:51:05.590Z,12.40
2023-03-10T01:53:34.068Z,14.05
2023-03-10T01:56:06.393Z,14.93
2023-03-10T01:58:36.197Z,17.77
2023-03-10T02:01:04.119Z,19.15
2023-03-10T02:03:47.044Z,17.17
2023-03-10T02:06:15.730Z,20.65
2023-03-10T02:08:44.735Z,16.13
2023-03-10T02:11:12.905Z,20.85
2023-03-10T02:13:41.554Z,26.95
2023-03-10T02:16:09.442Z,27.08
2023-03-10T02:18:37.466Z,29.95
2023-03-10T02:21:29.306Z,32.28
2023-03-10T02:24:01.617Z,32.38
2023-03-10T02:27:09.234Z,23.58
2023-03-10T02:29:59.406Z,22.02
2023-03-10T02:32:27.991Z,24.42
2023-03-10T02:34:55.949Z,24.88
2023-03-10T02:37:25.466Z,29.23
2023-03-10T02:39:53.441Z,28.50
2023-03-10T02:42:23.076Z,27.73
2023-03-10T02:44:50.891Z,26.02
2023-03-10T02:47:18.550Z,24.27
2023-03-10T02:49:46.431Z,21.55
2023-03-10T02:52:56.527Z,18.50
2023-03-10T02:55:24.340Z,18.65
2023-03-10T02:57:52.139Z,16.98
2023-03-10T03:00:20.028Z,13.60
2023-03-10T03:02:47.981Z,10.52
2023-03-10T03:05:15.749Z,7.93
2023-03-10T03:07:43.507Z,7.72
2023-03-10T03:10:11.586Z,6.95
2023-03-10T03:12:39.896Z,5.05
2023-03-10T03:15:08.508Z,8.80
2023-03-10T03:17:36.502Z,10.82
2023-03-10T03:20:11.901Z,6.53
2023-03-10T03:22:40.036Z,10.60
2023-03-10T03:25:07.942Z,10.57
2023-03-10T03:27:35.655Z,11.27
2023-03-10T03:30:03.630Z,11.90
2023-03-10T03:32:31.677Z,14.88
2023-03-10T03:35:00.040Z,15.63
2023-03-10T03:37:27.825Z,15.38
2023-03-10T03:39:55.714Z,24.70
2023-03-10T03:42:23.560Z,16.40
2023-03-10T03:44:51.387Z,15.27
2023-03-10T03:47:19.194Z,13.00
2023-03-10T03:49:46.965Z,9.82
2023-03-10T03:52:14.771Z,15.60
2023-03-10T03:54:42.574Z,16.88
2023-03-10T03:57:10.407Z,17.58
2023-03-10T03:59:38.248Z,25.00
2023-03-10T04:02:06.090Z,25.75
2023-03-10T04:04:33.927Z,28.45
2023-03-10T04:07:01.885Z,30.63
2023-03-10T04:09:29.843Z,28.38
2023-03-10T04:11:58.114Z,28.95
2023-03-10T04:14:26.492Z,24.45
2023-03-10T04:16:54.294Z,28.80
2023-03-10T04:19:22.164Z,27.55
2023-03-10T04:21:50.023Z,37.90
2023-03-10T04:24:17.843Z,37.20
2023-03-10T04:26:46.382Z,37.78
2023-03-10T04:29:14.312Z,41.20
2023-03-10T04:31:43.745Z,40.80
2023-03-10T04:34:14.310Z,36.17
2023-03-10T04:36:42.134Z,31.67
2023-03-10T04:39:10.131Z,33.65
2023-03-10T04:41:37.929Z,26.05
2023-03-10T04:44:05.881Z,40.22
2023-03-10T04:46:33.996Z,38.13
2023-03-10T04:49:01.982Z,35.55
2023-03-10T04:51:29.849Z,30.30
2023-03-10T04:53:57.667Z,32.55
2023-03-10T04:56:25.475Z,29.02
2023-03-10T04:58:53.341Z,31.35
2023-03-10T05:01:21.162Z,29.27
2023-03-10T05:03:48.952Z,26.40
2023-03-10T05:06:18.762Z,21.33
2023-03-10T05:08:46.816Z,23.25
2023-03-10T05:11:15.243Z,25.30
2023-03-10T05:13:43.825Z,20.55
2023-03-10T05:16:18.991Z,30.08
2023-03-10T05:18:47.309Z,28.65
2023-03-10T05:21:15.285Z,48.63
2023-03-10T05:23:43.044Z,50.53
2023-03-10T05:26:11.926Z,45.55
2023-03-10T05:28:39.686Z,53.30
2023-03-10T05:31:15.367Z,46.38
2023-03-10T05:33:43.501Z,47.35
2023-03-10T05:36:14.929Z,58.75
2023-03-10T05:38:42.771Z,54.25
2023-03-10T05:41:11.833Z,46.30
2023-03-10T05:43:40.000Z,41.65
2023-03-10T05:46:07.695Z,42.75
2023-03-10T05:48:35.553Z,50.33
2023-03-10T05:51:12.976Z,49.80
2023-03-10T05:53:42.044Z,44.08
2023-03-10T05:56:14.929Z,41.30
2023-03-10T05:58:42.736Z,38.22
2023-03-10T06:01:10.902Z,39.20
2023-03-10T06:03:39.145Z,37.33
2023-03-10T06:06:07.215Z,39.22
2023-03-10T06:08:35.052Z,42.03
2023-03-10T06:11:02.968Z,44.55
2023-03-10T06:13:31.388Z,39.97
2023-03-10T06:16:00.727Z,38.95
2023-03-10T06:18:29.201Z,53.10
2023-03-10T06:20:57.374Z,46.08
2023-03-10T06:23:25.552Z,44.60
2023-03-10T06:25:57.911Z,57.17
2023-03-10T06:28:26.442Z,48.90
2023-03-10T06:30:58.086Z,49.33
2023-03-10T06:33:26.418Z,46.90
2023-03-10T06:35:54.605Z,46.65
2023-03-10T06:38:22.628Z,48.25
2023-03-10T06:40:50.606Z,52.83
2023-03-10T06:43:18.379Z,52.35
2023-03-10T06:45:48.772Z,51.15
2023-03-10T06:48:17.088Z,51.05
2023-03-10T06:50:50.607Z,52.10
2023-03-10T06:53:21.052Z,57.30
2023-03-10T06:56:02.748Z,62.10
2023-03-10T06:58:30.878Z,60.47
2023-03-10T07:00:58.918Z,60.05
2023-03-10T07:03:28.981Z,30.63
2023-03-10T07:05:58.621Z,34.67
2023-03-10T07:08:26.811Z,33.85
2023-03-10T07:10:55.712Z,34.28
2023-03-10T07:13:23.741Z,33.75
2023-03-10T07:15:51.446Z,37.85
2023-03-10T07:18:19.267Z,63.60
2023-03-10T07:20:48.153Z,57.65
2023-03-10T07:23:16.063Z,49.92
2023-03-10T07:25:44.075Z,51.17
2023-03-10T07:28:12.216Z,46.88
2023-03-10T07:30:40.099Z,33.25
2023-03-10T07:33:07.899Z,15.77
2023-03-10T07:35:37.067Z,16.40
2023-03-10T07:38:05.169Z,16.00
2023-03-10T07:40:33.141Z,8.90
2023-03-10T07:43:01.033Z,9.93
2023-03-10T07:45:31.029Z,12.45
2023-03-10T07:50:26.653Z,12.20
2023-03-10T07:52:55.635Z,11.77
2023-03-10T07:55:23.561Z,9.70
2023-03-10T07:57:51.563Z,9.70
2023-03-10T08:00:19.945Z,11.85
2023-03-10T08:02:47.702Z,12.77
2023-03-10T08:05:16.043Z,6.70
2023-03-10T08:07:44.125Z,8.93
2023-03-10T08:10:13.011Z,10.57
2023-03-10T08:12:40.678Z,8.73
2023-03-10T08:15:09.375Z,9.20
2023-03-10T08:17:37.988Z,9.40
2023-03-10T08:20:06.798Z,9.15
2023-03-10T08:22:34.598Z,7.65
2023-03-10T08:25:10.317Z,12.00
2023-03-10T08:27:38.240Z,7.00
2023-03-10T08:30:06.862Z,11.57
2023-03-10T08:32:34.743Z,5.72
2023-03-10T08:35:02.756Z,7.45
2023-03-10T08:37:30.667Z,8.10
2023-03-10T08:39:59.590Z,9.68
2023-03-10T08:42:27.441Z,8.82
2023-03-10T08:44:58.496Z,8.40
2023-03-10T08:47:29.318Z,7.30
2023-03-10T08:49:58.424Z,6.90
2023-03-10T08:52:26.304Z,8.38
2023-03-10T08:54:54.364Z,8.35
2023-03-10T08:57:22.236Z,10.90
2023-03-10T08:59:51.595Z,7.15
2023-03-10T09:02:22.148Z,10.90
2023-03-10T09:04:50.914Z,8.85
2023-03-10T09:07:20.212Z,7.60
2023-03-10T09:09:52.583Z,6.40
2023-03-10T09:12:21.260Z,10.23
2023-03-10T09:14:49.225Z,8.60
2023-03-10T09:17:19.450Z,7.80
2023-03-10T09:19:48.103Z,9.38
2023-03-10T09:22:16.136Z,11.85
2023-03-10T09:24:43.980Z,10.45
2023-03-10T09:27:11.898Z,11.68
2023-03-10T09:29:43.396Z,9.13
2023-03-10T09:32:18.407Z,11.00
2023-03-10T09:34:46.273Z,12.25
2023-03-10T09:37:14.190Z,11.95
2023-03-10T09:39:42.007Z,14.00
2023-03-10T09:42:38.258Z,11.68
2023-03-10T09:45:17.702Z,10.85
2023-03-10T09:48:05.046Z,13.80
2023-03-10T09:50:43.668Z,11.15
2023-03-10T09:53:35.767Z,14.60
2023-03-10T09:56:05.050Z,9.57
2023-03-10T09:58:58.167Z,20.92
2023-03-10T10:01:31.997Z,7.47
2023-03-10T10:04:32.063Z,11.05
2023-03-10T10:07:00.431Z,10.68
2023-03-10T10:09:35.896Z,16.58
2023-03-10T10:12:23.792Z,16.50
2023-03-10T10:15:17.188Z,10.20
2023-03-10T10:18:16.183Z,11.65
2023-03-10T10:21:07.427Z,14.20
2023-03-10T10:23:47.661Z,8.57
2023-03-10T10:26:18.378Z,15.55
2023-03-10T10:28:48.673Z,8.35
2023-03-10T10:31:23.371Z,10.05
2023-03-10T10:34:01.310Z,11.52
2023-03-10T10:36:51.029Z,6.88
2023-03-10T10:39:45.236Z,5.40
2023-03-10T10:42:33.500Z,7.07
2023-03-10T10:45:25.489Z,8.32
2023-03-10T10:47:55.500Z,9.40
2023-03-10T10:53:19.985Z,8.45
2023-03-10T10:56:14.715Z,9.05
2023-03-10T10:59:11.556Z,7.00
2023-03-10T11:01:56.660Z,14.50
2023-03-10T11:04:27.224Z,6.38
2023-03-10T11:07:15.610Z,6.32
2023-03-10T11:09:43.448Z,8.43
2023-03-10T11:12:12.611Z,9.32
2023-03-10T11:15:28.980Z,7.68
2023-03-10T11:18:15.539Z,6.50
2023-03-10T11:21:05.060Z,5.70
2023-03-10T11:24:03.587Z,6.63
2023-03-10T11:26:33.290Z,10.13
2023-03-10T11:29:39.410Z,7.65
2023-03-10T11:34:32.960Z,122.68
2023-03-10T11:37:06.516Z,10.52
2023-03-10T11:40:20.018Z,14.38
2023-03-10T11:42:49.657Z,10.55
2023-03-10T11:45:22.545Z,8.35
2023-03-10T11:48:05.571Z,10.50
2023-03-10T11:50:41.436Z,6.85
2023-03-10T11:53:40.850Z,8.02
2023-03-10T11:56:11.963Z,12.80
2023-03-10T11:59:29.729Z,10.60
2023-03-10T12:02:00.427Z,10.30
2023-03-10T12:04:31.649Z,7.57
2023-03-10T12:07:05.981Z,8.23
2023-03-10T12:09:36.976Z,14.07
2023-03-10T12:12:06.182Z,5.47
2023-03-10T12:14:35.156Z,16.63
2023-03-10T12:17:04.876Z,10.10
2023-03-10T12:19:32.670Z,10.38
2023-03-10T12:22:29.886Z,14.43
2023-03-10T12:24:57.900Z,20.45
2023-03-10T12:27:25.679Z,21.23
2023-03-10T12:29:53.825Z,8.15
2023-03-10T12:32:42.062Z,16.15
2023-03-10T12:35:22.176Z,14.60
2023-03-10T12:37:49.997Z,16.42
2023-03-10T12:40:36.539Z,14.90
2023-03-10T12:43:24.034Z,9.18
2023-03-10T12:45:51.828Z,9.02
2023-03-10T12:48:24.979Z,6.80
2023-03-10T12:50:57.214Z,10.73
2023-03-10T12:53:38.876Z,7.88
2023-03-10T12:56:19.250Z,12.40
2023-03-10T12:59:15.465Z,9.35
2023-03-10T13:01:55.014Z,9.38
2023-03-10T13:04:23.862Z,6.22
2023-03-10T13:06:56.896Z,5.00
2023-03-10T13:09:28.201Z,7.78
2023-03-10T13:12:02.694Z,6.75
2023-03-10T13:14:44.342Z,10.23
2023-03-10T13:17:22.944Z,10.07
2023-03-10T13:20:17.798Z,6.47
2023-03-10T13:22:59.202Z,5.30
2023-03-10T13:25:27.090Z,6.72
2023-03-10T13:27:57.619Z,7.43
2023-03-10T13:30:29.570Z,8.45
2023-03-10T13:32:59.422Z,7.15
2023-03-10T13:35:27.049Z,5.80
2023-03-10T13:38:07.958Z,10.20
2023-03-10T13:40:36.021Z,7.25
2023-03-10T13:43:04.203Z,6.70
2023-03-10T13:45:35.120Z,10.65
2023-03-10T13:48:06.317Z,7.47
2023-03-10T13:50:33.917Z,4.85
2023-03-10T13:53:02.250Z,6.65
2023-03-10T13:55:30.024Z,7.00
2023-03-10T13:57:59.791Z,6.85
2023-03-10T14:00:27.637Z,7.20
2023-03-10T14:02:56.039Z,7.18
2023-03-10T14:05:42.164Z,7.18
2023-03-10T14:08:22.304Z,5.68
2023-03-10T14:10:53.142Z,4.68
2023-03-10T14:13:39.326Z,4.30
2023-03-10T14:16:07.167Z,8.35
2023-03-10T14:18:36.104Z,11.35
2023-03-10T14:21:52.286Z,8.98
2023-03-10T14:24:28.070Z,5.90
2023-03-10T14:27:00.217Z,7.22
2023-03-10T14:29:28.246Z,6.68
2023-03-10T14:31:56.804Z,6.10
2023-03-10T14:34:24.468Z,11.80
2023-03-10T14:36:52.391Z,5.57
2023-03-10T14:39:20.472Z,7.53
2023-03-10T14:41:48.365Z,7.22
2023-03-10T14:44:16.943Z,7.57
2023-03-10T14:46:46.236Z,7.40
2023-03-10T14:49:15.681Z,5.53
2023-03-10T15:51:59.373Z,3.58
2023-03-10T15:56:54.855Z,5.93
2023-03-10T15:59:22.723Z,3.95
2023-03-10T16:01:50.413Z,4.80
2023-03-10T16:04:19.207Z,5.03
2023-03-10T16:06:47.063Z,4.00
2023-03-10T16:09:15.120Z,4.90
2023-03-10T16:11:42.911Z,3.90
2023-03-10T16:14:10.658Z,3.50
2023-03-10T16:16:38.365Z,4.50
2023-03-10T16:19:06.249Z,4.40
2023-03-10T16:21:33.960Z,3.95
2023-03-10T16:24:01.615Z,8.63
2023-03-10T16:26:29.496Z,5.45
2023-03-10T16:28:57.084Z,5.35
2023-03-10T16:31:26.382Z,3.45
2023-03-10T16:33:54.399Z,3.92
2023-03-10T16:36:23.420Z,4.53
2023-03-10T16:38:51.079Z,2.20
2023-03-10T16:41:18.952Z,2.85
2023-03-10T16:43:47.151Z,6.03
2023-03-10T16:46:17.494Z,3.65
2023-03-10T16:48:46.141Z,3.78
2023-03-10T16:51:23.081Z,2.97
2023-03-10T16:53:51.620Z,4.45
2023-03-10T16:56:19.395Z,1.45
2023-03-10T16:58:47.175Z,4.10
2023-03-10T17:01:14.980Z,2.28
2023-03-10T17:03:42.609Z,1.92
2023-03-10T17:06:11.672Z,5.75
2023-03-10T17:08:39.753Z,2.85
2023-03-10T17:11:07.782Z,3.03
2023-03-10T17:13:36.812Z,1.73
2023-03-10T17:16:12.588Z,7.50
2023-03-10T17:18:40.245Z,3.50
2023-03-10T17:21:21.605Z,3.85
2023-03-10T17:23:49.509Z,4.13
2023-03-10T17:26:17.965Z,4.47
2023-03-10T17:28:47.059Z,4.70
2023-03-10T17:31:15.642Z,2.90
2023-03-10T17:33:43.675Z,3.65
2023-03-10T17:36:14.190Z,4.50
2023-03-10T17:38:42.210Z,3.08
2023-03-10T17:41:11.792Z,4.55
2023-03-10T17:43:40.071Z,1.23
2023-03-10T17:46:08.711Z,5.22
2023-03-10T17:48:36.938Z,2.22
2023-03-10T17:51:05.530Z,2.40
2023-03-10T17:53:34.124Z,1.92
2023-03-10T17:56:08.062Z,3.13
2023-03-10T17:58:36.008Z,2.55
2023-03-10T18:01:14.083Z,2.83
2023-03-10T18:03:41.809Z,1.80
2023-03-10T18:06:13.384Z,3.00
2023-03-10T18:08:41.369Z,2.15
2023-03-10T18:11:09.440Z,2.88
2023-03-10T18:13:37.090Z,2.70
2023-03-10T18:16:05.134Z,3.33
2023-03-10T18:18:32.930Z,2.50
2023-03-10T18:21:00.640Z,4.28
2023-03-10T18:23:28.247Z,4.18
2023-03-10T18:25:56.004Z,4.40
2023-03-10T18:28:23.934Z,3.95
2023-03-10T18:30:53.043Z,2.97
2023-03-10T18:33:20.694Z,3.03
2023-03-10T18:35:48.807Z,4.38
2023-03-10T18:38:17.512Z,2.85
2023-03-10T18:40:45.356Z,3.75
2023-03-10T18:43:12.999Z,3.25
2023-03-10T18:45:40.942Z,2.80
2023-03-10T18:48:08.704Z,2.83
2023-03-10T18:50:42.819Z,3.05
2023-03-10T18:53:11.029Z,2.17
2023-03-10T18:55:39.258Z,1.60
2023-03-10T18:58:06.941Z,2.30
2023-03-10T19:00:34.665Z,3.35
2023-03-10T19:03:02.481Z,2.35
2023-03-10T19:05:30.212Z,3.33
2023-03-10T19:07:58.116Z,2.40
2023-03-10T19:10:25.806Z,3.08
2023-03-10T19:12:53.555Z,2.42
2023-03-10T19:15:21.509Z,2.40
2023-03-10T19:17:49.213Z,1.42
2023-03-10T19:20:17.608Z,2.15
2023-03-10T19:22:49.651Z,2.47
2023-03-10T19:25:17.601Z,2.67
2023-03-10T19:27:45.374Z,2.13
2023-03-10T19:30:15.958Z,2.67
2023-03-10T19:32:43.992Z,2.85
2023-03-10T19:35:12.052Z,2.40
2023-03-10T19:37:42.966Z,2.42
2023-03-10T19:40:14.360Z,2.58
2023-03-10T19:42:43.033Z,2.33
2023-03-10T19:45:15.406Z,2.88
2023-03-10T19:47:43.496Z,2.30
2023-03-10T19:50:12.479Z,2.65
2023-03-10T19:52:43.669Z,2.58
2023-03-10T19:55:14.631Z,2.47
2023-03-10T19:57:42.775Z,2.75
2023-03-10T20:00:13.943Z,2.15
2023-03-10T20:02:44.707Z,2.53
2023-03-10T20:05:15.964Z,1.90
2023-03-10T20:07:46.855Z,2.30
2023-03-10T20:10:15.038Z,2.25
2023-03-10T20:12:42.730Z,3.15
2023-03-10T20:15:10.901Z,2.50
2023-03-10T20:17:38.748Z,1.83
2023-03-10T20:20:10.829Z,2.58
2023-03-10T20:22:42.886Z,2.47
2023-03-10T20:25:11.800Z,2.45
2023-03-10T20:27:39.547Z,2.65
2023-03-10T20:30:08.639Z,2.38
2023-03-10T20:32:36.752Z,1.95
2023-03-10T20:35:05.776Z,2.40
2023-03-10T20:37:35.798Z,2.30
2023-03-10T20:42:34.116Z,2.00
2023-03-10T20:45:02.550Z,1.65
2023-03-10T20:47:30.265Z,2.03
2023-03-10T20:49:58.077Z,2.05
2023-03-10T20:52:27.309Z,1.75
2023-03-10T20:54:55.072Z,1.90
2023-03-10T20:57:22.904Z,3.00
2023-03-10T20:59:50.762Z,2.03
2023-03-10T21:02:18.916Z,1.58
2023-03-10T21:04:47.233Z,2.15
2023-03-10T21:07:14.922Z,1.75
2023-03-10T21:09:42.562Z,1.67
2023-03-10T21:12:10.228Z,1.83
2023-03-10T21:14:38.020Z,2.03
2023-03-10T21:17:06.001Z,2.00
2023-03-10T21:19:34.234Z,2.03
2023-03-10T21:22:03.454Z,1.58
2023-03-10T21:24:31.342Z,1.60
2023-03-10T21:26:59.070Z,1.98
2023-03-10T21:29:26.939Z,2.00
2023-03-10T21:31:54.794Z,1.45
2023-03-10T21:34:22.421Z,1.40
2023-03-10T21:36:50.295Z,1.42
2023-03-10T21:39:18.007Z,1.67
2023-03-10T21:41:45.912Z,2.10
2023-03-10T21:44:13.608Z,2.00
2023-03-10T21:46:41.448Z,1.52
2023-03-10T21:49:09.225Z,1.63
2023-03-10T21:51:37.873Z,1.55
2023-03-10T21:54:05.669Z,2.45
2023-03-10T21:56:33.531Z,2.70
2023-03-10T21:59:01.518Z,1.95
2023-03-10T22:01:29.366Z,1.25
2023-03-10T22:03:57.313Z,2.20
2023-03-10T22:06:24.971Z,2.15
2023-03-10T22:08:52.713Z,1.85
2023-03-10T22:11:20.506Z,1.95
2023-03-10T22:13:48.208Z,2.75
2023-03-10T22:16:16.970Z,1.77
2023-03-10T22:18:45.139Z,1.67
2023-03-10T22:21:12.993Z,1.45
2023-03-10T22:23:40.719Z,1.65
2023-03-10T22:26:09.016Z,1.30
2023-03-10T22:28:36.684Z,1.58
2023-03-10T22:31:08.293Z,1.38
2023-03-10T22:33:36.560Z,1.63
2023-03-10T22:36:06.113Z,1.83
2023-03-10T22:38:33.967Z,1.92
2023-03-10T22:41:01.649Z,2.05
2023-03-10T22:43:29.522Z,2.00
2023-03-10T22:45:59.406Z,1.85
2023-03-10T22:48:27.305Z,1.60
2023-03-10T22:50:55.143Z,2.25
2023-03-10T22:53:23.097Z,1.73
2023-03-10T22:55:51.376Z,1.73
2023-03-10T22:58:19.148Z,1.48
2023-03-10T23:00:46.920Z,1.73
2023-03-10T23:03:15.444Z,1.90
2023-03-10T23:05:45.107Z,1.30
2023-03-10T23:08:13.252Z,1.98
2023-03-10T23:10:41.688Z,1.52
2023-03-10T23:13:11.055Z,1.73
2023-03-10T23:15:38.786Z,2.20
2023-03-10T23:18:06.965Z,1.30
2023-03-10T23:20:37.655Z,1.95
2023-03-10T23:23:05.923Z,1.90
2023-03-10T23:25:35.952Z,2.00
2023-03-10T23:30:32.270Z,1.90
2023-03-10T23:33:00.212Z,1.40
2023-03-10T23:35:29.278Z,2.05
2023-03-10T23:37:57.144Z,1.55
2023-03-10T23:40:27.078Z,2.30
2023-03-10T23:42:55.606Z,1.42
2023-03-10T23:45:23.727Z,1.75
2023-03-10T23:47:52.115Z,1.75
2023-03-10T23:50:24.244Z,1.75
2023-03-10T23:52:52.010Z,1.83
2023-03-10T23:55:25.812Z,1.17
2023-03-10T23:57:53.588Z,1.55
